Time;durP1;ratioP1;P1;durP2;ratioP2;P2;SDS_P1;SDS_P2;PMS_P1;PMS_P2;Temp;Humidity;BMP_temperature;BMP_pressure;BME280_temperature;BME280_humidity;BME280_pressure;Samples;Min_cycle;Max_cycle;Signal;HPM_P1;HPM_P2
2022/08/23 00:01:38;;;;;;;1.85;1.40;;;15.80;11.50;;;;;;5112343;27;35971;-73
2022/08/23 00:04:09;;;;;;;2.90;1.42;;;15.70;11.30;;;;;;5086812;27;34158;-73
2022/08/23 00:06:35;;;;;;;3.92;1.50;;;15.70;11.90;;;;;;5124756;27;34111;-74
2022/08/23 00:09:02;;;;;;;2.17;1.45;;;15.60;11.30;;;;;;5139226;27;34009;-74
2022/08/23 00:11:41;;;;;;;1.75;1.40;;;15.60;11.50;;;;;;5149220;27;34094;-74
2022/08/23 00:14:11;;;;;;;3.00;1.60;;;15.60;11.80;;;;;;5145697;27;34136;-73
2022/08/23 00:16:39;;;;;;;4.20;1.42;;;15.50;12.00;;;;;;5145368;27;34121;-74
2022/08/23 00:19:07;;;;;;;2.33;1.48;;;15.50;11.70;;;;;;5128169;27;34181;-73
2022/08/23 00:21:35;;;;;;;3.45;1.40;;;15.50;11.80;;;;;;5093704;27;36248;-74
2022/08/23 00:24:03;;;;;;;1.95;1.63;;;15.50;12.00;;;;;;5128737;27;34044;-74
2022/08/23 00:26:58;;;;;;;3.53;1.52;;;15.40;11.80;;;;;;5146659;27;34323;-74
2022/08/23 00:29:30;;;;;;;1.92;1.30;;;15.40;15.10;;;;;;5112291;27;34138;-73
2022/08/23 00:31:57;;;;;;;2.72;1.50;;;15.40;12.50;;;;;;5110938;27;35692;-74
2022/08/23 00:34:23;;;;;;;7.22;1.55;;;15.30;12.00;;;;;;5146148;27;34480;-73
2022/08/23 00:36:49;;;;;;;1.73;1.38;;;15.30;12.10;;;;;;5135391;27;34536;-73
2022/08/23 00:39:16;;;;;;;1.73;1.35;;;15.20;12.20;;;;;;5146011;27;34194;-74
2022/08/23 00:41:44;;;;;;;1.50;1.23;;;15.20;12.30;;;;;;5136964;27;35120;-74
2022/08/23 00:49:49;;;;;;;2.17;1.83;;;15.10;12.60;;;;;;5145718;27;34048;-74
2022/08/23 00:52:28;;;;;;;2.35;1.80;;;15.10;13.30;;;;;;5145145;27;35151;-73
2022/08/23 00:54:54;;;;;;;4.13;1.65;;;15.10;13.50;;;;;;5110536;27;34099;-74
2022/08/23 00:57:20;;;;;;;2.47;1.60;;;15.00;12.70;;;;;;5126984;27;34229;-73
2022/08/23 00:59:46;;;;;;;3.70;1.48;;;15.00;12.70;;;;;;5128053;27;34100;-74
2022/08/23 01:02:13;;;;;;;1.77;1.60;;;15.00;12.70;;;;;;5166637;27;34293;-74
2022/08/23 01:04:44;;;;;;;2.15;1.45;;;15.00;12.80;;;;;;5147610;27;34270;-74
2022/08/23 01:07:31;;;;;;;4.38;1.63;;;15.00;13.20;;;;;;5148194;27;34231;-74
2022/08/23 01:10:00;;;;;;;3.33;1.88;;;15.00;13.70;;;;;;5156186;27;34145;-74
2022/08/23 01:12:34;;;;;;;1.70;1.30;;;14.90;13.10;;;;;;5130599;27;35793;-73
2022/08/23 01:15:08;;;;;;;2.17;1.40;;;14.90;13.80;;;;;;5147684;27;34240;-73
2022/08/23 01:17:39;;;;;;;2.13;1.60;;;14.90;13.80;;;;;;5166681;27;34110;-74
2022/08/23 01:20:10;;;;;;;2.75;1.60;;;14.90;13.60;;;;;;5162438;27;34389;-73
2022/08/23 01:22:51;;;;;;;2.15;1.70;;;14.90;13.60;;;;;;5147719;27;35734;-74
2022/08/23 01:25:20;;;;;;;2.10;1.38;;;14.80;14.90;;;;;;5166385;27;34095;-74
2022/08/23 01:27:47;;;;;;;2.22;1.45;;;14.80;13.50;;;;;;5147659;27;34118;-74
2022/08/23 01:30:17;;;;;;;1.80;1.42;;;14.80;13.30;;;;;;5148135;27;34453;-73
2022/08/23 01:32:48;;;;;;;3.63;1.60;;;14.80;13.60;;;;;;5147626;27;36439;-74
2022/08/23 01:35:15;;;;;;;4.10;1.63;;;14.70;13.80;;;;;;5139052;27;34119;-74
2022/08/23 01:37:43;;;;;;;2.00;1.80;;;14.70;13.40;;;;;;5127220;27;34353;-74
2022/08/23 01:40:09;;;;;;;6.50;1.55;;;14.70;13.40;;;;;;5126965;27;34274;-74
2022/08/23 01:42:35;;;;;;;2.10;1.40;;;14.70;13.40;;;;;;5109532;27;36014;-74
2022/08/23 01:45:01;;;;;;;3.78;1.60;;;14.60;13.30;;;;;;5127226;27;34125;-74
2022/08/23 01:47:28;;;;;;;2.53;1.50;;;14.60;13.50;;;;;;5128242;27;34124;-74
2022/08/23 01:49:54;;;;;;;1.88;1.40;;;14.50;13.60;;;;;;5166293;27;34103;-74
2022/08/23 01:52:20;;;;;;;2.53;1.58;;;14.50;13.70;;;;;;5129746;27;35731;-73
2022/08/23 01:54:46;;;;;;;2.80;1.30;;;14.40;13.80;;;;;;5114131;27;34165;-74
2022/08/23 01:57:12;;;;;;;1.48;1.38;;;14.30;13.80;;;;;;5151517;27;34196;-74
2022/08/23 01:59:38;;;;;;;1.52;1.27;;;14.30;14.00;;;;;;5163646;27;34439;-74
2022/08/23 02:02:04;;;;;;;2.97;1.58;;;14.30;14.10;;;;;;5133361;27;35796;-74
2022/08/23 02:04:30;;;;;;;2.88;1.33;;;14.30;14.10;;;;;;5169723;27;34464;-73
2022/08/23 02:06:56;;;;;;;2.40;1.60;;;14.30;14.20;;;;;;5151453;27;34444;-73
2022/08/23 02:09:22;;;;;;;2.15;1.70;;;14.20;14.20;;;;;;5169928;27;34277;-73
2022/08/23 02:11:48;;;;;;;2.10;1.60;;;14.20;14.20;;;;;;5153134;27;34475;-74
2022/08/23 02:14:17;;;;;;;1.75;1.50;;;14.20;14.30;;;;;;5148538;27;34199;-74
2022/08/23 02:16:47;;;;;;;2.67;1.60;;;14.20;14.70;;;;;;5130520;27;34126;-74
2022/08/23 02:19:15;;;;;;;3.10;1.70;;;14.20;14.70;;;;;;5148683;27;34042;-74
2022/08/23 02:21:42;;;;;;;4.03;1.50;;;14.20;14.50;;;;;;5112076;27;35905;-74
2022/08/23 02:24:14;;;;;;;3.05;1.40;;;14.20;14.50;;;;;;5124478;27;34299;-74
2022/08/23 02:26:45;;;;;;;4.63;1.67;;;14.10;14.70;;;;;;5148606;27;34201;-73
2022/08/23 02:29:13;;;;;;;2.35;1.58;;;14.10;15.30;;;;;;5148073;27;34330;-74
2022/08/23 02:31:39;;;;;;;2.50;1.60;;;14.10;14.70;;;;;;5128997;27;35575;-74
2022/08/23 02:34:05;;;;;;;1.42;1.33;;;14.10;14.60;;;;;;5129511;27;34234;-74
2022/08/23 02:36:33;;;;;;;1.85;1.58;;;14.10;14.60;;;;;;5132412;27;34092;-74
2022/08/23 02:38:59;;;;;;;2.88;1.63;;;14.00;14.70;;;;;;5150049;27;34268;-74
2022/08/23 02:41:25;;;;;;;3.08;1.50;;;14.00;14.80;;;;;;5149972;27;36065;-74
2022/08/23 02:43:52;;;;;;;1.88;1.50;;;14.00;14.80;;;;;;5169227;27;34044;-74
2022/08/23 02:46:20;;;;;;;5.10;1.70;;;14.00;14.70;;;;;;5168922;27;34181;-74
2022/08/23 02:48:46;;;;;;;2.40;1.77;;;14.00;14.80;;;;;;5168407;27;34135;-74
2022/08/23 02:51:12;;;;;;;1.60;1.50;;;13.90;15.00;;;;;;5150030;27;35546;-74
2022/08/23 02:53:38;;;;;;;1.88;1.48;;;13.90;15.00;;;;;;5149126;27;34334;-75
2022/08/23 02:56:05;;;;;;;2.10;1.75;;;13.90;15.00;;;;;;5129135;27;34201;-74
2022/08/23 02:58:31;;;;;;;2.72;1.67;;;13.90;15.00;;;;;;5147641;27;34318;-74
2022/08/23 03:00:58;;;;;;;3.45;1.60;;;13.90;15.10;;;;;;5115199;27;35677;-74
2022/08/23 03:03:24;;;;;;;1.75;1.38;;;13.90;15.20;;;;;;5165850;27;34112;-74
2022/08/23 03:05:50;;;;;;;1.90;1.67;;;13.80;15.20;;;;;;5166833;27;34056;-74
2022/08/23 03:08:17;;;;;;;2.20;1.70;;;13.80;15.20;;;;;;5150172;27;34561;-74
2022/08/23 03:10:45;;;;;;;3.22;1.60;;;13.70;15.30;;;;;;5168063;27;34171;-74
2022/08/23 03:13:12;;;;;;;3.17;2.00;;;13.70;15.60;;;;;;5132790;27;34039;-74
2022/08/23 03:15:39;;;;;;;1.67;1.55;;;13.70;15.40;;;;;;5149346;27;34023;-74
2022/08/23 03:18:05;;;;;;;3.45;1.73;;;13.70;15.60;;;;;;5168064;27;34261;-75
2022/08/23 03:20:31;;;;;;;2.60;1.70;;;13.60;15.40;;;;;;5149090;27;35914;-75
2022/08/23 03:22:58;;;;;;;1.58;1.40;;;13.70;15.40;;;;;;5149512;27;34217;-75
2022/08/23 03:25:26;;;;;;;3.90;1.73;;;13.60;15.40;;;;;;5148854;27;34369;-74
2022/08/23 03:27:52;;;;;;;2.55;1.70;;;13.60;15.60;;;;;;5167937;27;34115;-74
2022/08/23 03:30:18;;;;;;;2.20;1.50;;;13.60;15.50;;;;;;5143285;27;36032;-74
2022/08/23 03:32:44;;;;;;;2.55;1.67;;;13.60;15.60;;;;;;5144109;27;34148;-74
2022/08/23 03:35:09;;;;;;;3.53;1.52;;;13.60;15.70;;;;;;5149096;27;34011;-74
2022/08/23 03:37:36;;;;;;;4.20;1.50;;;13.50;15.60;;;;;;5148596;27;34276;-75
2022/08/23 03:40:04;;;;;;;1.60;1.50;;;13.50;15.70;;;;;;5128259;27;35884;-74
2022/08/23 03:42:30;;;;;;;1.83;1.50;;;13.50;15.60;;;;;;5128588;27;34204;-74
2022/08/23 03:44:56;;;;;;;2.97;1.42;;;13.40;15.70;;;;;;5146208;27;34483;-74
2022/08/23 03:47:21;;;;;;;2.08;1.52;;;13.40;15.80;;;;;;5130625;27;34140;-74
2022/08/23 03:49:47;;;;;;;1.70;1.60;;;13.40;15.80;;;;;;5160902;27;34182;-74
2022/08/23 03:52:14;;;;;;;1.60;1.50;;;13.40;15.90;;;;;;5131647;27;34414;-74
2022/08/23 03:54:39;;;;;;;2.85;1.63;;;13.40;15.70;;;;;;5166946;27;34197;-74
2022/08/23 03:57:08;;;;;;;3.72;1.60;;;13.40;15.80;;;;;;5131240;27;34438;-74
2022/08/23 03:59:38;;;;;;;2.95;1.60;;;13.40;15.90;;;;;;5147991;27;34545;-75
2022/08/23 04:02:04;;;;;;;1.50;1.40;;;13.40;16.00;;;;;;5144932;27;34166;-74
2022/08/23 04:04:30;;;;;;;2.45;1.58;;;13.30;16.00;;;;;;5127994;27;34135;-74
2022/08/23 04:06:56;;;;;;;3.13;1.73;;;13.40;16.00;;;;;;5127724;27;34253;-74
2022/08/23 04:09:22;;;;;;;2.55;1.73;;;13.30;16.10;;;;;;5145291;27;35469;-75
2022/08/23 04:11:50;;;;;;;4.10;1.70;;;13.30;16.10;;;;;;5146762;27;34401;-74
2022/08/23 04:14:15;;;;;;;4.15;1.42;;;13.30;16.20;;;;;;5149180;27;34312;-74
2022/08/23 04:16:43;;;;;;;2.50;1.60;;;13.30;16.10;;;;;;5148561;27;34327;-74
2022/08/23 04:19:12;;;;;;;2.08;1.70;;;13.30;16.30;;;;;;5148583;27;34489;-74
2022/08/23 04:21:40;;;;;;;4.53;1.80;;;13.30;16.40;;;;;;5131323;27;34246;-74
2022/08/23 04:24:06;;;;;;;1.95;1.77;;;13.30;16.30;;;;;;5137232;27;34164;-74
2022/08/23 04:26:32;;;;;;;2.15;1.60;;;13.30;16.30;;;;;;5127789;27;34078;-75
2022/08/23 04:28:59;;;;;;;2.92;1.77;;;13.30;16.30;;;;;;5136606;27;35935;-74
2022/08/23 04:31:25;;;;;;;2.83;1.80;;;13.20;16.30;;;;;;5166464;27;34130;-74
2022/08/23 04:33:52;;;;;;;2.65;2.00;;;13.20;16.50;;;;;;5147139;27;34205;-74
2022/08/23 04:36:19;;;;;;;2.25;1.70;;;13.10;16.80;;;;;;5166790;27;34337;-74
2022/08/23 04:38:45;;;;;;;3.28;1.90;;;13.10;16.80;;;;;;5166425;27;34963;-74
2022/08/23 04:43:52;;;;;;;1.60;1.50;;;13.10;16.70;;;;;;5150608;27;34241;-75
2022/08/23 04:46:18;;;;;;;3.40;1.85;;;13.10;16.90;;;;;;5148102;27;34506;-75
2022/08/23 04:48:45;;;;;;;2.15;1.70;;;13.10;16.90;;;;;;5163119;27;35106;-74
2022/08/23 04:51:11;;;;;;;3.72;1.67;;;13.10;16.90;;;;;;5166105;27;34205;-74
2022/08/23 04:53:38;;;;;;;1.63;1.45;;;13.10;16.90;;;;;;5148345;27;34158;-76
2022/08/23 04:56:05;;;;;;;2.03;1.60;;;13.10;16.80;;;;;;5129548;27;34043;-74
2022/08/23 04:58:32;;;;;;;2.92;1.80;;;13.10;16.90;;;;;;5166378;27;34775;-75
2022/08/23 05:01:03;;;;;;;1.50;1.40;;;13.10;16.90;;;;;;5147856;27;34078;-75
2022/08/23 05:03:30;;;;;;;5.32;1.70;;;13.10;17.00;;;;;;5134996;27;34222;-75
2022/08/23 05:05:57;;;;;;;1.55;1.45;;;13.10;17.50;;;;;;5138820;27;34223;-74
2022/08/23 05:08:24;;;;;;;2.28;1.70;;;13.10;17.20;;;;;;5137115;27;36064;-75
2022/08/23 05:10:51;;;;;;;1.83;1.50;;;13.10;17.20;;;;;;5143774;27;34490;-74
2022/08/23 05:13:17;;;;;;;2.15;1.95;;;13.10;17.90;;;;;;5157931;27;34167;-76
2022/08/23 05:15:43;;;;;;;2.05;1.60;;;13.10;17.30;;;;;;5148071;27;34157;-75
2022/08/23 05:18:10;;;;;;;2.75;1.80;;;13.10;17.40;;;;;;5136624;27;36149;-74
2022/08/23 05:20:36;;;;;;;2.92;1.95;;;13.10;17.50;;;;;;5147677;27;34173;-75
2022/08/23 05:23:02;;;;;;;2.22;2.00;;;13.20;17.50;;;;;;5118168;27;34331;-74
2022/08/23 05:25:48;;;;;;;3.08;2.35;;;13.20;17.50;;;;;;5161484;27;34296;-75
2022/08/23 05:28:16;;;;;;;2.78;2.00;;;13.20;17.50;;;;;;5135845;27;34533;-74
2022/08/23 05:30:44;;;;;;;5.78;1.70;;;13.20;17.60;;;;;;5112740;27;34237;-74
2022/08/23 05:33:11;;;;;;;2.60;1.75;;;13.30;17.60;;;;;;5131761;27;34170;-74
2022/08/23 05:35:39;;;;;;;5.20;1.98;;;13.30;17.60;;;;;;5169767;27;34358;-75
2022/08/23 05:38:05;;;;;;;2.03;1.80;;;13.40;17.60;;;;;;5139389;27;34727;-75
2022/08/23 05:40:31;;;;;;;5.32;1.70;;;13.40;17.50;;;;;;5141734;27;34300;-77
2022/08/23 05:42:57;;;;;;;2.45;1.67;;;13.40;17.50;;;;;;5146538;27;34526;-75
2022/08/23 05:45:23;;;;;;;3.22;1.70;;;13.50;17.40;;;;;;5150921;27;34080;-74
2022/08/23 05:47:49;;;;;;;2.50;1.67;;;13.50;17.50;;;;;;5169198;27;34244;-75
2022/08/23 05:50:15;;;;;;;7.90;1.73;;;13.60;17.50;;;;;;5150699;27;34077;-75
2022/08/23 05:52:41;;;;;;;4.32;1.80;;;13.60;17.50;;;;;;5133124;27;34213;-75
2022/08/23 05:55:07;;;;;;;4.47;1.85;;;13.60;17.60;;;;;;5149652;27;34529;-75
2022/08/23 05:57:37;;;;;;;6.03;2.13;;;13.70;17.70;;;;;;5169399;27;35796;-75
2022/08/23 06:00:08;;;;;;;2.47;1.67;;;13.70;17.90;;;;;;5151634;27;34170;-75
2022/08/23 06:02:36;;;;;;;4.70;2.30;;;13.80;18.00;;;;;;5169463;27;34111;-74
2022/08/23 06:05:02;;;;;;;2.50;1.92;;;13.90;17.80;;;;;;5116795;27;34526;-74
2022/08/23 06:07:28;;;;;;;5.30;2.45;;;14.00;17.80;;;;;;5133425;27;36363;-75
2022/08/23 06:09:54;;;;;;;3.65;2.40;;;14.00;17.80;;;;;;5144485;27;34170;-74
2022/08/23 06:12:20;;;;;;;3.72;2.45;;;14.20;17.80;;;;;;5131902;27;34185;-74
2022/08/23 06:14:46;;;;;;;3.08;2.75;;;14.50;17.70;;;;;;5147194;27;34484;-74
2022/08/23 06:17:12;;;;;;;3.53;2.40;;;15.20;17.10;;;;;;5169517;27;34392;-74
2022/08/23 06:19:38;;;;;;;2.90;2.30;;;16.10;16.30;;;;;;5151533;27;35922;-75
2022/08/23 06:22:04;;;;;;;5.25;2.30;;;17.20;14.70;;;;;;5150661;27;34351;-74
2022/08/23 06:24:30;;;;;;;3.00;2.50;;;18.30;13.30;;;;;;5151519;27;34084;-75
2022/08/23 06:26:56;;;;;;;2.80;2.30;;;19.30;11.70;;;;;;5132998;27;35769;-75
2022/08/23 06:29:22;;;;;;;2.90;2.03;;;20.10;10.30;;;;;;5129895;27;34160;-75
2022/08/23 06:31:50;;;;;;;5.25;2.35;;;20.90;9.30;;;;;;5166617;27;34294;-75
2022/08/23 06:34:34;;;;;;;2.78;1.90;;;21.70;8.50;;;;;;5134038;27;34004;-75
2022/08/23 06:37:09;;;;;;;2.25;2.05;;;22.60;7.40;;;;;;5150025;27;35815;-75
2022/08/23 06:39:36;;;;;;;5.40;2.15;;;23.20;6.30;;;;;;5151702;27;34004;-75
2022/08/23 06:42:10;;;;;;;2.47;2.08;;;23.70;6.20;;;;;;5147203;27;34224;-76
2022/08/23 06:44:36;;;;;;;2.58;1.70;;;24.20;5.20;;;;;;5165119;27;34184;-75
2022/08/23 06:47:04;;;;;;;2.55;2.17;;;24.60;4.90;;;;;;5146032;27;35663;-75
2022/08/23 06:49:31;;;;;;;2.33;2.00;;;24.80;4.60;;;;;;5142921;27;34292;-75
2022/08/23 06:52:00;;;;;;;5.95;1.80;;;25.10;4.40;;;;;;5149174;27;34370;-75
2022/08/23 06:54:30;;;;;;;5.75;1.70;;;25.30;3.30;;;;;;5169049;27;34061;-75
2022/08/23 06:56:57;;;;;;;4.43;1.90;;;25.40;3.50;;;;;;5143275;27;36698;-75
2022/08/23 06:59:23;;;;;;;3.25;1.75;;;25.50;3.50;;;;;;5148889;27;34186;-75
2022/08/23 07:01:55;;;;;;;3.97;1.75;;;25.50;3.20;;;;;;5132366;27;34000;-75
2022/08/23 07:04:27;;;;;;;4.75;2.13;;;25.60;2.60;;;;;;5149059;27;34211;-75
2022/08/23 07:06:54;;;;;;;4.43;2.05;;;25.60;1.80;;;;;;5134732;27;35774;-75
2022/08/23 07:09:20;;;;;;;5.28;2.00;;;25.60;3.00;;;;;;5149372;27;34223;-76
2022/08/23 07:11:46;;;;;;;1.52;1.25;;;25.80;3.00;;;;;;5131912;27;34200;-76
2022/08/23 07:14:15;;;;;;;3.03;1.80;;;25.70;2.90;;;;;;5149573;27;34096;-75
2022/08/23 07:16:45;;;;;;;2.85;1.60;;;25.50;3.80;;;;;;5147320;27;35619;-75
2022/08/23 07:19:11;;;;;;;4.03;1.75;;;25.50;3.60;;;;;;5128514;27;34529;-76
2022/08/23 07:21:38;;;;;;;3.05;1.63;;;25.30;3.80;;;;;;5146820;27;34421;-75
2022/08/23 07:24:04;;;;;;;2.67;1.70;;;25.10;4.00;;;;;;5143356;27;34575;-75
2022/08/23 07:26:30;;;;;;;2.30;1.65;;;24.90;4.80;;;;;;5132231;27;36657;-75
2022/08/23 07:28:57;;;;;;;9.05;1.70;;;24.40;4.90;;;;;;5146608;27;34414;-75
2022/08/23 07:31:27;;;;;;;4.53;2.13;;;24.20;5.30;;;;;;5156780;27;34364;-75
2022/08/23 07:33:54;;;;;;;3.60;2.00;;;23.80;5.20;;;;;;5150757;27;34225;-75
2022/08/23 07:36:22;;;;;;;3.88;1.60;;;23.50;6.20;;;;;;5138331;27;36740;-75
2022/08/23 07:38:48;;;;;;;3.78;1.85;;;23.30;6.30;;;;;;5142626;27;34132;-75
2022/08/23 07:41:16;;;;;;;3.42;1.95;;;23.20;6.60;;;;;;5167614;27;34182;-75
2022/08/23 07:43:43;;;;;;;3.83;1.90;;;23.20;6.90;;;;;;5145659;27;35232;-75
2022/08/23 07:46:10;;;;;;;4.43;1.60;;;23.20;6.80;;;;;;5145707;27;35764;-75
2022/08/23 07:48:37;;;;;;;2.33;1.75;;;23.20;6.60;;;;;;5166149;27;34341;-74
2022/08/23 07:51:06;;;;;;;3.88;1.60;;;23.20;6.60;;;;;;5149101;27;34208;-75
2022/08/23 07:53:32;;;;;;;7.40;1.77;;;23.30;6.40;;;;;;5131843;27;34244;-75
2022/08/23 07:55:59;;;;;;;3.92;1.90;;;23.50;6.40;;;;;;5111232;27;35895;-75
2022/08/23 07:58:25;;;;;;;3.80;1.55;;;23.60;6.20;;;;;;5161739;27;34091;-75
2022/08/23 08:00:52;;;;;;;3.50;1.70;;;23.60;6.00;;;;;;5129243;27;34276;-75
2022/08/23 08:03:18;;;;;;;2.83;2.13;;;23.80;5.90;;;;;;5132025;27;34338;-75
2022/08/23 08:05:45;;;;;;;4.78;2.00;;;23.90;5.60;;;;;;5117974;27;34426;-75
2022/08/23 08:08:11;;;;;;;6.22;1.80;;;24.10;5.40;;;;;;5127949;27;34300;-76
2022/08/23 08:10:40;;;;;;;7.68;1.95;;;24.40;5.30;;;;;;5128350;27;34245;-75
2022/08/23 08:13:07;;;;;;;4.50;1.98;;;24.50;4.80;;;;;;5134897;27;34133;-77
2022/08/23 08:15:34;;;;;;;5.60;1.75;;;24.70;4.80;;;;;;5147448;27;35642;-75
2022/08/23 08:18:01;;;;;;;3.58;1.70;;;24.90;4.40;;;;;;5148883;27;34201;-74
2022/08/23 08:20:27;;;;;;;3.65;1.58;;;25.00;4.20;;;;;;5167348;27;34215;-75
2022/08/23 08:22:54;;;;;;;5.05;2.22;;;25.20;3.90;;;;;;5147731;27;34518;-75
2022/08/23 08:25:20;;;;;;;5.70;1.42;;;25.40;3.40;;;;;;5152672;27;35521;-75
2022/08/23 08:27:47;;;;;;;6.32;1.70;;;25.60;3.40;;;;;;5145490;27;34628;-75
2022/08/23 08:30:13;;;;;;;8.88;1.85;;;26.10;3.50;;;;;;5142269;27;34338;-74
2022/08/23 08:32:40;;;;;;;5.55;1.65;;;26.40;2.80;;;;;;5131589;27;34429;-74
2022/08/23 08:35:07;;;;;;;4.70;1.70;;;26.70;2.50;;;;;;5148961;27;34417;-74
2022/08/23 08:37:35;;;;;;;4.40;1.95;;;27.10;2.40;;;;;;5148645;27;34192;-75
2022/08/23 08:40:01;;;;;;;2.80;1.70;;;27.50;2.20;;;;;;5148141;27;34658;-75
2022/08/23 08:43:05;;;;;;;2.90;1.65;;;27.80;1.70;;;;;;5148413;27;34404;-74
2022/08/23 08:46:00;;;;;;;5.82;1.73;;;28.20;1.00;;;;;;5136110;27;36013;-75
2022/08/23 08:48:29;;;;;;;2.63;1.58;;;28.60;1.00;;;;;;5141631;27;34210;-76
2022/08/23 08:51:02;;;;;;;7.05;1.92;;;28.70;1.00;;;;;;5129844;27;34640;-75
2022/08/23 08:53:35;;;;;;;3.40;1.55;;;28.70;1.00;;;;;;5144938;27;34274;-76
2022/08/23 08:56:14;;;;;;;2.90;1.35;;;28.70;1.00;;;;;;5143473;27;34429;-75
2022/08/23 08:58:49;;;;;;;5.10;1.58;;;28.70;1.00;;;;;;5132254;27;34245;-75
2022/08/23 09:01:17;;;;;;;3.10;1.50;;;28.80;1.00;;;;;;5148536;27;34402;-74
2022/08/23 09:03:43;;;;;;;6.25;1.65;;;28.90;1.00;;;;;;5147657;27;34297;-76
2022/08/23 09:06:26;;;;;;;3.17;1.38;;;29.00;1.00;;;;;;5147007;27;35946;-75
2022/08/23 09:09:20;;;;;;;4.28;1.35;;;29.20;1.00;;;;;;5127147;27;34087;-75
2022/08/23 09:12:10;;;;;;;6.97;1.30;;;29.20;1.00;;;;;;5151947;27;34305;-76
2022/08/23 09:15:00;;;;;;;5.75;1.38;;;29.40;1.00;;;;;;5163647;27;34697;-76
2022/08/23 09:17:46;;;;;;;4.22;1.48;;;29.40;1.00;;;;;;5154276;27;36718;-75
2022/08/23 09:20:15;;;;;;;3.60;1.08;;;29.60;1.00;;;;;;5155045;27;34346;-76
2022/08/23 09:22:50;;;;;;;2.10;1.00;;;29.90;1.00;;;;;;5128885;27;34312;-76
2022/08/23 09:25:17;;;;;;;2.63;0.85;;;29.90;1.00;;;;;;5144872;27;34071;-75
2022/08/23 09:27:44;;;;;;;1.10;0.88;;;29.70;1.00;;;;;;5152781;27;34887;-75
2022/08/23 09:30:13;;;;;;;1.35;0.93;;;29.70;1.00;;;;;;5127254;27;34194;-75
2022/08/23 09:32:43;;;;;;;2.60;0.90;;;29.80;1.00;;;;;;5135110;27;34396;-75
2022/08/23 09:35:16;;;;;;;2.60;0.75;;;29.90;1.00;;;;;;5138756;27;34501;-77
2022/08/23 09:38:00;;;;;;;8.88;0.95;;;30.00;1.00;;;;;;5141759;27;35698;-75
2022/08/23 09:40:37;;;;;;;1.73;1.00;;;30.10;1.00;;;;;;5131668;27;34340;-76
2022/08/23 09:43:20;;;;;;;2.45;0.85;;;30.30;1.00;;;;;;5118121;27;34462;-76
2022/08/23 09:45:58;;;;;;;1.08;0.70;;;30.60;1.00;;;;;;5144977;27;34385;-75
2022/08/23 09:48:38;;;;;;;1.02;0.70;;;30.90;1.00;;;;;;5166457;27;34347;-75
2022/08/23 09:51:21;;;;;;;1.15;0.65;;;31.10;1.00;;;;;;5127672;27;34151;-75
2022/08/23 09:53:50;;;;;;;1.60;0.57;;;31.30;1.00;;;;;;5151638;27;34279;-76
2022/08/23 09:56:23;;;;;;;1.55;0.90;;;31.60;1.00;;;;;;5137894;27;34833;-76
2022/08/23 09:58:51;;;;;;;2.35;0.70;;;31.60;1.00;;;;;;5123755;27;35790;-76
2022/08/23 10:01:35;;;;;;;1.15;0.73;;;31.60;1.00;;;;;;5165554;27;34170;-77
2022/08/23 10:04:14;;;;;;;2.00;0.82;;;31.60;1.00;;;;;;5139746;27;34311;-76
2022/08/23 10:06:44;;;;;;;1.02;0.70;;;31.70;1.00;;;;;;5155591;27;34355;-76
2022/08/23 10:09:23;;;;;;;3.30;0.90;;;32.00;1.00;;;;;;5162306;27;34441;-76
2022/08/23 10:11:50;;;;;;;5.47;1.20;;;32.20;1.00;;;;;;5166160;27;34533;-76
2022/08/23 10:14:18;;;;;;;0.90;0.70;;;32.20;1.00;;;;;;5118383;27;34218;-75
2022/08/23 10:17:07;;;;;;;1.83;0.85;;;32.30;1.00;;;;;;5137643;27;34139;-76
2022/08/23 10:19:43;;;;;;;2.40;0.80;;;32.30;1.00;;;;;;5133955;27;36636;-75
2022/08/23 10:22:27;;;;;;;2.13;0.85;;;32.40;1.00;;;;;;5140091;27;34398;-76
2022/08/23 10:25:17;;;;;;;0.80;0.68;;;32.10;1.00;;;;;;5149101;27;34148;-77
2022/08/23 10:31:06;;;;;;;1.42;0.70;;;31.90;1.00;;;;;;5154892;27;34941;-77
2022/08/23 10:33:54;;;;;;;1.77;0.63;;;32.00;1.00;;;;;;5151276;27;34430;-77
2022/08/23 10:36:55;;;;;;;1.58;0.65;;;31.90;1.00;;;;;;5126117;27;34111;-76
2022/08/23 10:39:26;;;;;;;0.50;0.47;;;32.00;1.00;;;;;;5128871;27;34437;-75
2022/08/23 10:42:18;;;;;;;1.73;0.60;;;31.80;1.00;;;;;;5133600;27;36888;-75
2022/08/23 10:45:04;;;;;;;0.93;0.55;;;31.60;1.00;;;;;;5147605;27;34181;-77
2022/08/23 10:47:37;;;;;;;2.88;0.60;;;31.60;1.00;;;;;;5145309;27;34166;-76
2022/08/23 10:50:11;;;;;;;0.50;0.50;;;31.60;1.00;;;;;;5116418;27;34093;-77
2022/08/23 10:52:49;;;;;;;0.95;0.50;;;31.80;1.00;;;;;;5131188;27;36416;-75
2022/08/23 10:55:34;;;;;;;1.83;0.50;;;31.80;1.00;;;;;;5163321;27;34142;-77
2022/08/23 10:58:04;;;;;;;1.60;0.60;;;31.80;1.00;;;;;;5151001;27;34305;-77
2022/08/23 11:00:33;;;;;;;0.98;0.57;;;31.90;1.00;;;;;;5147878;27;34423;-75
2022/08/23 11:03:18;;;;;;;1.40;0.50;;;32.00;1.00;;;;;;5129184;27;35943;-76
2022/08/23 11:06:19;;;;;;;2.38;0.45;;;32.30;1.00;;;;;;5114606;27;33605;-77
2022/08/23 11:08:46;;;;;;;0.85;0.50;;;32.10;1.00;;;;;;5129299;27;34170;-76
2022/08/23 11:11:36;;;;;;;0.73;0.43;;;32.10;1.00;;;;;;5133777;27;34210;-76
2022/08/23 11:14:02;;;;;;;0.55;0.50;;;31.80;1.00;;;;;;5149037;27;36425;-75
2022/08/23 11:16:30;;;;;;;2.22;0.70;;;31.80;1.00;;;;;;5159736;27;34402;-76
2022/08/23 11:18:57;;;;;;;1.17;0.60;;;32.10;1.00;;;;;;5125195;27;34208;-76
2022/08/23 11:21:44;;;;;;;6.63;0.68;;;32.10;1.00;;;;;;5149966;27;34397;-75
2022/08/23 11:24:29;;;;;;;0.95;0.52;;;32.40;1.00;;;;;;5140556;27;36359;-75
2022/08/23 11:27:03;;;;;;;2.13;0.50;;;32.70;1.00;;;;;;5140090;27;34322;-75
2022/08/23 11:29:30;;;;;;;0.88;0.73;;;32.80;1.00;;;;;;5136574;27;34347;-76
2022/08/23 11:32:05;;;;;;;2.15;0.70;;;33.10;1.00;;;;;;5150120;27;34088;-77
2022/08/23 11:34:48;;;;;;;1.75;0.70;;;33.20;1.00;;;;;;5165487;27;34336;-76
2022/08/23 11:37:27;;;;;;;2.35;0.60;;;32.80;1.00;;;;;;5139434;27;34275;-76
2022/08/23 11:40:08;;;;;;;1.23;0.60;;;32.40;1.00;;;;;;5149857;27;34159;-75
2022/08/23 11:42:50;;;;;;;1.17;0.70;;;32.10;1.00;;;;;;5140272;27;34166;-75
2022/08/23 11:45:40;;;;;;;0.55;0.55;;;32.00;1.00;;;;;;5148562;27;35023;-75
2022/08/23 11:48:21;;;;;;;0.68;0.55;;;32.00;1.00;;;;;;5172451;27;34299;-75
2022/08/23 11:51:16;;;;;;;5.18;0.82;;;31.80;1.00;;;;;;5148665;27;34148;-75
2022/08/23 11:54:05;;;;;;;1.27;0.75;;;31.60;1.00;;;;;;5132609;27;34318;-75
2022/08/23 11:56:46;;;;;;;1.58;0.85;;;31.60;1.00;;;;;;5133293;27;35716;-76
2022/08/23 11:59:43;;;;;;;0.73;0.60;;;31.60;1.00;;;;;;5149106;27;34352;-77
2022/08/23 12:02:31;;;;;;;2.60;0.63;;;31.60;1.00;;;;;;5142703;27;34102;-75
2022/08/23 12:05:00;;;;;;;1.35;0.63;;;31.70;1.00;;;;;;5168573;27;34237;-76
2022/08/23 12:07:45;;;;;;;3.30;0.80;;;31.70;1.00;;;;;;5149761;27;36119;-76
2022/08/23 12:10:15;;;;;;;4.35;0.70;;;31.70;1.00;;;;;;5139597;27;34409;-76
2022/08/23 12:12:41;;;;;;;1.35;0.60;;;31.90;1.00;;;;;;5142842;27;34348;-77
2022/08/23 12:15:10;;;;;;;2.20;0.70;;;32.10;1.00;;;;;;5145604;27;34231;-75
2022/08/23 12:18:07;;;;;;;0.70;0.57;;;32.30;1.00;;;;;;5164011;27;34407;-76
2022/08/23 12:20:34;;;;;;;0.65;0.50;;;32.40;1.00;;;;;;5136432;27;34421;-76
2022/08/23 12:23:10;;;;;;;1.58;0.80;;;32.50;1.00;;;;;;5167122;27;34052;-76
2022/08/23 12:25:36;;;;;;;2.22;0.50;;;32.50;1.00;;;;;;5149343;27;34107;-76
2022/08/23 12:28:15;;;;;;;0.40;0.40;;;32.40;1.00;;;;;;5166494;27;34233;-78
2022/08/23 12:31:07;;;;;;;0.68;0.63;;;32.50;1.00;;;;;;5161091;27;34137;-76
2022/08/23 12:33:51;;;;;;;1.65;0.80;;;32.70;1.00;;;;;;5140938;27;34331;-77
2022/08/23 12:36:27;;;;;;;0.90;0.50;;;32.70;1.00;;;;;;5151481;27;34174;-76
2022/08/23 12:39:05;;;;;;;0.98;0.50;;;32.50;1.00;;;;;;5162768;27;34940;-75
2022/08/23 12:41:50;;;;;;;0.55;0.55;;;32.20;1.00;;;;;;5131970;27;34483;-76
2022/08/23 12:44:19;;;;;;;1.20;0.63;;;32.00;1.00;;;;;;5167596;27;34110;-76
2022/08/23 12:46:47;;;;;;;0.98;0.68;;;31.90;1.00;;;;;;5136937;27;34540;-76
2022/08/23 12:49:29;;;;;;;0.70;0.52;;;32.00;1.00;;;;;;5157347;27;34562;-77
2022/08/23 12:55:19;;;;;;;2.90;0.70;;;32.50;1.00;;;;;;5166487;27;34201;-76
2022/08/23 12:57:56;;;;;;;1.98;0.80;;;32.70;1.00;;;;;;5166330;27;34428;-75
2022/08/23 13:00:29;;;;;;;1.98;0.63;;;32.60;1.00;;;;;;5160279;27;34588;-75
2022/08/23 13:03:11;;;;;;;2.63;0.50;;;32.40;1.00;;;;;;5111131;27;34245;-74
2022/08/23 13:05:49;;;;;;;2.08;0.65;;;32.30;1.00;;;;;;5148667;27;34347;-76
2022/08/23 13:08:22;;;;;;;0.60;0.50;;;32.40;1.00;;;;;;5131869;27;34822;-77
2022/08/23 13:10:48;;;;;;;1.10;0.60;;;32.60;1.00;;;;;;5147635;27;36331;-76
2022/08/23 13:13:21;;;;;;;1.13;0.73;;;32.80;1.00;;;;;;5130630;27;34239;-77
2022/08/23 13:15:55;;;;;;;2.05;0.73;;;33.00;1.00;;;;;;5133777;27;34278;-76
2022/08/23 13:18:40;;;;;;;1.95;0.50;;;32.90;1.00;;;;;;5138204;27;34458;-75
2022/08/23 13:21:27;;;;;;;2.25;0.70;;;32.80;1.00;;;;;;5144279;27;35374;-75
2022/08/23 13:23:57;;;;;;;4.00;0.57;;;32.60;1.00;;;;;;5158343;27;34433;-76
2022/08/23 13:26:43;;;;;;;1.65;0.60;;;32.40;1.00;;;;;;5149003;27;34314;-75
2022/08/23 13:29:25;;;;;;;1.55;0.70;;;32.30;1.00;;;;;;5144370;27;34113;-76